This is the latest recevied weather packets stored in our database for station/object N8QQ. If no packets are shown the sender has not sent any weather packets the latest 10 day(s).
| Time | Temp. | Humidity | Pressure | Rain* | Wind** | Luminosity | Snow |
|---|---|---|---|---|---|---|---|
| 1777246828 | 18.33° C | 65% | 1011.3 hPa | 0 mm | - | - | - |
| 1777244421 | 18.89° C | 63% | 1011.3 hPa | 0 mm | - | - | - |
| 1777240216 | 20° C | 62% | 1011.8 hPa | 0 mm | - | - | - |
| 1777239625 | 20° C | 62% | 1011.6 hPa | 0 mm | - | - | - |
| 1777237817 | 19.44° C | 63% | 1011.6 hPa | 0 mm | - | - | - |
| 1777236623 | 20° C | 64% | 1011.8 hPa | 0 mm | - | - | - |
| 1777235430 | 19.44° C | 64% | 1011.8 hPa | 0 mm | - | - | - |
| 1777233622 | 19.44° C | 64% | 1012.2 hPa | 0 mm | - | - | - |
| 1777222226 | 15.56° C | 74% | 1013.3 hPa | 0 mm | - | - | - |
| 1777221027 | 13.89° C | 78% | 1013.7 hPa | 0 mm | - | - | - |
| 1777220430 | 13.33° C | 78% | 1013.8 hPa | 0 mm | - | - | - |
| 1777219833 | 13.33° C | 80% | 1013.8 hPa | 0 mm | - | - | - |
| 1777213828 | 11.11° C | 86% | 1013.5 hPa | 0 mm | - | - | - |
| 1777208442 | 10.56° C | 87% | 1013 hPa | 0 mm | - | - | - |
| 1777207823 | 10.56° C | 87% | 1012.8 hPa | 0 mm | - | - | - |
| 1777203621 | 10° C | 91% | 1012 hPa | 0 mm | - | - | - |
| 1777200624 | 9.44° C | 91% | 1011.9 hPa | 0 mm | - | - | - |
| 1777196449 | 10° C | 91% | 1011.4 hPa | 0 mm | - | - | - |
| 1777194620 | 10° C | 90% | 1011.2 hPa | 0 mm | - | - | - |
| 1777189230 | 10.56° C | 90% | 1010.3 hPa | 0 mm | - | - | - |
| 1777183821 | 12.78° C | 91% | 1009.7 hPa | 0 mm | - | - | - |
| 1777179625 | 14.44° C | 90% | 1009.4 hPa | 0 mm | - | - | - |
| 1777170617 | 16.67° C | 79% | 1007.9 hPa | 0 mm | - | - | - |
| 1777169423 | 16.67° C | 77% | 1007.8 hPa | 0 mm | - | - | - |
| 1777168249 | 17.22° C | 75% | 1007.6 hPa | 0 mm | - | - | - |
* Rain latest hour (hover to see other rain measurements)
** Current wind speed in m/s (hover to see current wind gust speed)